Main page
METAR-TAF:

METAR-TAF

Airports :

Palma de Mallorca Airport

Palma de Mallorca, Spain

latitude: 39-33N, longitude: 002-44E, elevation: 4 m

Current weather observation

The report was made 12 minutes ago, at 19:30 UTC
Wind 2 kt from variable directions
Temperature 16°C
Humidity 59%
Pressure 1022 hPa
Visibility 10 km or more
no clouds below 1500 m and no cumulonimbus

METAR: LEPA 091930Z VRB02KT CAVOK 16/08 Q1022 NOSIG

Time: 21:42 (19:42 UTC)

Forecast

The report was made 2 hours and 42 minutes ago, at 17:00 UTC
Forecast valid from 09 at 18 UTC to 10 at 18 UTC
Wind 5 kt from the North/Northeast
Visibility 10 km or more
Few clouds at a height of 3000 ft
Becoming
from 10 at 11 UTC to 10 at 14 UTC
Wind 9 kt from the Southwest

TAF: LEPA 091700Z 0918/1018 03005KT 9999 FEW030 TX22/1012Z TN09/1006Z BECMG 1011/1014 22009KT

Weather observations and forecasts of more than 4000 airports (METAR and TAF reports).

The available stations are represented by yellow and red dots on the map.

Hover mouse over dot to see the name of the station.

Then click to see weather observations and forecasts.

To change the map : click on the green buttons with a black cross to zoom in, on the green button with a dash to zoom out, or on the green arrows for adjacent maps.


METAR-TAF: